TAF : OOSA 142300Z 1500/1606 VRB03KT 9999 SCT025 BECMG 1506/1508 19010KT CAVOK BECMG 1518/1520 VRB03KT 9999 SCT025